Aérodrome :
LOGIN :

S'inscrire | Disclaimer

   EN    FR    IT 

 










Légende :    VFR   VFR Marginal   IFR   IFR Intensif   IFR Très Intensif
Visi : 
Plafond : 
>= 8 km
>= 3000ft
5 à 8 km
1000 à 3000 ft
1500m à 5 km
500 à 1000 ft
800 à 1500m
200 à 500 ft
< 800m
< 200 ft
Symboles :   Orages  Brouillard  Fortes neiges  Fortes précipitations  Vent > 20 kt
SIGMETs :   Divers  Orages  Givrage  Turbulence  Onde Orograph.  Cendres Volcan.







- Altitude de l'aérodrome : 18 ft


LIPC - Cervia AFB Ravenna

DERNIER METAR :
  • 240055Z 31003KT 4000 BR BKN008 02/01 Q1029 RMK BKN VIS MIN 4000 WIND THR11 31002KT WIND THR29 /////KT GRN

METARs EXPIRÉS :
  • 232355Z 26004KT 5000 BR NSC 02/01 Q1029 RMK SKC VIS MIN 5000 WIND THR11 26004KT WIND THR29 /////KT WHT
  • 232255Z 21002KT 3000 BR NSC 02/00 Q1029 RMK SKC VIS MIN 3000 WIND THR11 23004KT WIND THR29 /////KT YLO

TAF TAF LIPC
Valide du 24 à 00h jusqu'au 24 à 09h UTC


232300Z 2400/2409 20003KT 1500 BR SCT020
TEMPO 2321/2406 0300 FG BKN004
Pas de NOTAMs connus pour ce terrain.



MET'MAP, la Météo Aéronautique d'un coup d'oeil ! - Copyright ORBIFLY Décembre 2007 - Disclaimer

ORBIFLY MET'MAP TEAM :

Programmation & Développement : Alexandra Zaïnal
Conception & Développement : Baudouin d'Aumeries
Co-Programmation & Développement : Marc-Olivier Méhu
Soutien technique & logistique : Manuel Goepfert

Contact : metmap@orbifly.com




SOURCES & CREDITS :

   NOAA